PWSweather.com
Personal Weather Stations
Station Observations
PRATO
PratoIT 59100

PratoIT 59100

Lat: 43.8956799, Lon: 11.0845155

Elevation: 164

Station Type: Davis Vantage Vue

http://www.meteoprato.it

Latest ConditionsUpdated 12:15:00 PM GMT+01:01 Tuesday, Aug 14, 2018
Currently Today's Max Today's Min Today's Average
Temperature 79.5°F26.4°C 79.9°F26.6°C 68.8°F20.4°C 72.1°F22.3°C
Dew Point 64.4°F18.0°C 68.4°F20.2°C 64.4°F18.0°C 66.6°F19.2°C
Winds 2.8 mph SW4.5 kmh SW 5.0 mph -8.0 kmh - - 1.4 mph 2.3 kmh
Wind Gusts 9.0 mph14.5 kmh 10.0 mph16.1 kmh - -
Humidity 60% 92% 60% 83%
Pressure 29.89 in1012.2 mb 29.91 in1012.9 mb 29.86 in1011.2 mb -
Precipitation - 0.09 in2.3 mm - -
Hour Temp Dew Point Humidity Winds Wind Gusts Pressure Precip Precip Rate Daily Precip Total
12:15 PM 79.5°F26.4°C 64.4°F18.0°C 60% 2.8 mph SW4.5 kmh SW 9.0 mph14.5 kmh 29.89 in1012.2 mb 0.00 in0.0 mm 0.00 in0.0 mm 0.09 in2.3 mm
12:10 PM 79.4°F26.3°C 65.2°F18.4°C 62% 1.9 mph SW3.1 kmh SW 9.0 mph14.5 kmh 29.90 in1012.5 mb 0.00 in0.0 mm 0.00 in0.0 mm 0.09 in2.3 mm
12:05 PM 79.7°F26.5°C 66.4°F19.1°C 64% 1.1 mph SW1.8 kmh SW 7.0 mph11.3 kmh 29.89 in1012.2 mb 0.00 in0.0 mm 0.00 in0.0 mm 0.09 in2.3 mm
12:00 PM 79.9°F26.6°C 66.2°F19.0°C 63% 1.2 mph SW1.9 kmh SW 5.0 mph8.0 kmh 29.89 in1012.2 mb 0.00 in0.0 mm 0.00 in0.0 mm 0.09 in2.3 mm
11:55 AM 78.8°F26.0°C 66.9°F19.4°C 67% 1.8 mph SW2.9 kmh SW 3.0 mph4.8 kmh 29.90 in1012.5 mb 0.00 in0.0 mm 0.00 in0.0 mm 0.09 in2.3 mm
11:50 AM 78.1°F25.6°C 66.2°F19.0°C 67% 2.7 mph SSW4.3 kmh SSW 6.0 mph9.7 kmh 29.90 in1012.5 mb 0.00 in0.0 mm 0.00 in0.0 mm 0.09 in2.3 mm
11:45 AM 77.4°F25.2°C 67.7°F19.8°C 72% 3.5 mph SSW5.6 kmh SSW 6.0 mph9.7 kmh 29.89 in1012.2 mb 0.00 in0.0 mm 0.00 in0.0 mm 0.09 in2.3 mm
11:40 AM 76.9°F24.9°C 68.0°F20.0°C 74% 3.9 mph SW6.3 kmh SW 8.0 mph12.9 kmh 29.89 in1012.2 mb 0.00 in0.0 mm 0.00 in0.0 mm 0.09 in2.3 mm
11:35 AM 76.6°F24.8°C 68.1°F20.1°C 75% 3.9 mph SW6.3 kmh SW 8.0 mph12.9 kmh 29.90 in1012.5 mb 0.00 in0.0 mm 0.00 in0.0 mm 0.09 in2.3 mm
11:30 AM 76.4°F24.7°C 68.3°F20.2°C 76% 3.9 mph SW6.3 kmh SW 8.0 mph12.9 kmh 29.90 in1012.5 mb 0.00 in0.0 mm 0.00 in0.0 mm 0.09 in2.3 mm
11:25 AM 76.1°F24.5°C 68.4°F20.2°C 77% 3.2 mph SW5.1 kmh SW 10.0 mph16.1 kmh 29.90 in1012.5 mb 0.00 in0.0 mm 0.00 in0.0 mm 0.09 in2.3 mm
11:20 AM 76.1°F24.5°C 68.0°F20.0°C 76% 2.3 mph SW3.7 kmh SW 10.0 mph16.1 kmh 29.90 in1012.5 mb 0.00 in0.0 mm 0.00 in0.0 mm 0.09 in2.3 mm
11:15 AM 76.2°F24.6°C 68.1°F20.1°C 76% 2.3 mph SW3.7 kmh SW 6.0 mph9.7 kmh 29.90 in1012.5 mb 0.00 in0.0 mm 0.00 in0.0 mm 0.09 in2.3 mm
11:10 AM 76.1°F24.5°C 68.4°F20.2°C 77% 2.9 mph SW4.7 kmh SW 7.0 mph11.3 kmh 29.91 in1012.9 mb 0.00 in0.0 mm 0.00 in0.0 mm 0.09 in2.3 mm
11:05 AM 75.8°F24.3°C 68.1°F20.1°C 77% 3.0 mph SW4.8 kmh SW 10.0 mph16.1 kmh 29.91 in1012.9 mb 0.00 in0.0 mm 0.00 in0.0 mm 0.09 in2.3 mm
11:00 AM 75.7°F24.3°C 68.4°F20.2°C 78% 2.4 mph SW3.9 kmh SW 10.0 mph16.1 kmh 29.91 in1012.9 mb 0.00 in0.0 mm 0.00 in0.0 mm 0.09 in2.3 mm
10:55 AM 75.6°F24.2°C 67.9°F19.9°C 77% 1.7 mph SW2.7 kmh SW 6.0 mph9.7 kmh 29.91 in1012.9 mb 0.00 in0.0 mm 0.00 in0.0 mm 0.09 in2.3 mm
10:50 AM 75.3°F24.1°C 68.0°F20.0°C 78% 1.2 mph SW1.9 kmh SW 5.0 mph8.0 kmh 29.91 in1012.9 mb 0.00 in0.0 mm 0.00 in0.0 mm 0.09 in2.3 mm
10:45 AM 75.1°F23.9°C 67.8°F19.9°C 78% 1.0 mph SW1.6 kmh SW 5.0 mph8.0 kmh 29.91 in1012.9 mb 0.00 in0.0 mm 0.00 in0.0 mm 0.09 in2.3 mm
10:40 AM 74.9°F23.8°C 67.9°F19.9°C 79% 1.5 mph SW2.4 kmh SW 5.0 mph8.0 kmh 29.91 in1012.9 mb 0.00 in0.0 mm 0.00 in0.0 mm 0.09 in2.3 mm
10:35 AM 74.7°F23.7°C 68.1°F20.1°C 80% 2.0 mph SW3.2 kmh SW 4.0 mph6.4 kmh 29.91 in1012.9 mb 0.00 in0.0 mm 0.00 in0.0 mm 0.09 in2.3 mm
10:30 AM 74.3°F23.5°C 68.1°F20.1°C 81% 2.0 mph SW3.2 kmh SW 5.0 mph8.0 kmh 29.91 in1012.9 mb 0.00 in0.0 mm 0.00 in0.0 mm 0.09 in2.3 mm
10:25 AM 74.2°F23.4°C 67.6°F19.8°C 80% 1.8 mph SW2.9 kmh SW 5.0 mph8.0 kmh 29.91 in1012.9 mb 0.00 in0.0 mm 0.00 in0.0 mm 0.09 in2.3 mm
10:20 AM 74.0°F23.3°C 68.2°F20.1°C 82% 1.3 mph SW2.1 kmh SW 5.0 mph8.0 kmh 29.91 in1012.9 mb 0.00 in0.0 mm 0.00 in0.0 mm 0.09 in2.3 mm
10:15 AM 73.8°F23.2°C 68.0°F20.0°C 82% 1.0 mph SW1.6 kmh SW 4.0 mph6.4 kmh 29.91 in1012.9 mb 0.00 in0.0 mm 0.00 in0.0 mm 0.09 in2.3 mm
10:10 AM 73.9°F23.3°C 68.1°F20.1°C 82% 1.0 mph SW1.6 kmh SW 3.0 mph4.8 kmh 29.91 in1012.9 mb 0.00 in0.0 mm 0.00 in0.0 mm 0.09 in2.3 mm
10:05 AM 73.8°F23.2°C 68.3°F20.2°C 83% 1.0 mph SW1.6 kmh SW 3.0 mph4.8 kmh 29.90 in1012.5 mb 0.00 in0.0 mm 0.00 in0.0 mm 0.09 in2.3 mm
10:00 AM 73.4°F23.0°C 67.9°F19.9°C 83% 1.0 mph SW1.6 kmh SW 3.0 mph4.8 kmh 29.90 in1012.5 mb 0.00 in0.0 mm 0.00 in0.0 mm 0.09 in2.3 mm
09:55 AM 73.4°F23.0°C 67.9°F19.9°C 83% 1.2 mph WSW1.9 kmh WSW 3.0 mph4.8 kmh 29.90 in1012.5 mb 0.00 in0.0 mm 0.00 in0.0 mm 0.09 in2.3 mm
09:50 AM 73.1°F22.8°C 67.6°F19.8°C 83% 1.8 mph WSW2.9 kmh WSW 5.0 mph8.0 kmh 29.89 in1012.2 mb 0.00 in0.0 mm 0.00 in0.0 mm 0.09 in2.3 mm
09:45 AM 73.0°F22.8°C 67.9°F19.9°C 84% 3.2 mph WSW5.1 kmh WSW 5.0 mph8.0 kmh 29.89 in1012.2 mb 0.00 in0.0 mm 0.00 in0.0 mm 0.09 in2.3 mm
09:40 AM 73.0°F22.8°C 68.2°F20.1°C 85% 4.4 mph WSW7.1 kmh WSW 8.0 mph12.9 kmh 29.89 in1012.2 mb 0.00 in0.0 mm 0.00 in0.0 mm 0.09 in2.3 mm
09:35 AM 72.9°F22.7°C 67.8°F19.9°C 84% 3.9 mph WSW6.3 kmh WSW 8.0 mph12.9 kmh 29.90 in1012.5 mb 0.00 in0.0 mm 0.00 in0.0 mm 0.09 in2.3 mm
09:30 AM 73.0°F22.8°C 67.9°F19.9°C 84% 2.3 mph WSW3.7 kmh WSW 8.0 mph12.9 kmh 29.89 in1012.2 mb 0.00 in0.0 mm 0.00 in0.0 mm 0.09 in2.3 mm
09:25 AM 73.3°F22.9°C 68.2°F20.1°C 84% 1.8 mph WSW2.9 kmh WSW 6.0 mph9.7 kmh 29.89 in1012.2 mb 0.00 in0.0 mm 0.00 in0.0 mm 0.09 in2.3 mm
09:20 AM 73.3°F22.9°C 67.8°F19.9°C 83% 2.4 mph WSW3.9 kmh WSW 5.0 mph8.0 kmh 29.88 in1011.9 mb 0.00 in0.0 mm 0.00 in0.0 mm 0.09 in2.3 mm
09:15 AM 73.1°F22.8°C 67.6°F19.8°C 83% 2.7 mph WSW4.3 kmh WSW 5.0 mph8.0 kmh 29.88 in1011.9 mb 0.00 in0.0 mm 0.00 in0.0 mm 0.09 in2.3 mm
09:10 AM 73.2°F22.9°C 68.1°F20.1°C 84% 1.9 mph WSW3.1 kmh WSW 6.0 mph9.7 kmh 29.89 in1012.2 mb 0.00 in0.0 mm 0.00 in0.0 mm 0.09 in2.3 mm
09:05 AM 73.2°F22.9°C 67.7°F19.8°C 83% 1.4 mph WSW2.3 kmh WSW 6.0 mph9.7 kmh 29.89 in1012.2 mb 0.00 in0.0 mm 0.00 in0.0 mm 0.09 in2.3 mm
09:00 AM 73.1°F22.8°C 68.0°F20.0°C 84% 2.5 mph NNE4.0 kmh NNE 4.0 mph6.4 kmh 29.89 in1012.2 mb 0.00 in0.0 mm 0.00 in0.0 mm 0.09 in2.3 mm
08:55 AM 72.7°F22.6°C 67.6°F19.8°C 84% 4.2 mph NE6.8 kmh NE 6.0 mph9.7 kmh 29.89 in1012.2 mb 0.00 in0.0 mm 0.00 in0.0 mm 0.09 in2.3 mm
08:50 AM 72.4°F22.4°C 67.3°F19.6°C 84% 4.6 mph NE7.4 kmh NE 7.0 mph11.3 kmh 29.88 in1011.9 mb 0.00 in0.0 mm 0.00 in0.0 mm 0.09 in2.3 mm
08:45 AM 72.0°F22.2°C 66.6°F19.2°C 83% 3.9 mph NE6.3 kmh NE 7.0 mph11.3 kmh 29.88 in1011.9 mb 0.00 in0.0 mm 0.00 in0.0 mm 0.09 in2.3 mm
08:40 AM 71.7°F22.1°C 66.6°F19.2°C 84% 3.8 mph NE6.1 kmh NE 7.0 mph11.3 kmh 29.88 in1011.9 mb 0.00 in0.0 mm 0.00 in0.0 mm 0.09 in2.3 mm
08:35 AM 71.6°F22.0°C 67.2°F19.6°C 86% 4.1 mph NE6.6 kmh NE 6.0 mph9.7 kmh 29.89 in1012.2 mb 0.00 in0.0 mm 0.00 in0.0 mm 0.09 in2.3 mm
08:30 AM 71.2°F21.8°C 67.1°F19.5°C 87% 4.6 mph NE7.4 kmh NE 8.0 mph12.9 kmh 29.89 in1012.2 mb 0.00 in0.0 mm 0.00 in0.0 mm 0.09 in2.3 mm
08:25 AM 70.7°F21.5°C 67.0°F19.4°C 88% 5.0 mph NE8.0 kmh NE 8.0 mph12.9 kmh 29.89 in1012.2 mb 0.00 in0.0 mm 0.00 in0.0 mm 0.09 in2.3 mm
08:20 AM 70.4°F21.3°C 67.3°F19.6°C 90% 4.8 mph NE7.7 kmh NE 9.0 mph14.5 kmh 29.89 in1012.2 mb 0.00 in0.0 mm 0.00 in0.0 mm 0.09 in2.3 mm
08:15 AM 70.1°F21.2°C 67.0°F19.4°C 90% 3.8 mph NE6.1 kmh NE 9.0 mph14.5 kmh 29.89 in1012.2 mb 0.00 in0.0 mm 0.00 in0.0 mm 0.09 in2.3 mm
08:10 AM 69.8°F21.0°C 67.1°F19.5°C 91% 2.1 mph NE3.4 kmh NE 8.0 mph12.9 kmh 29.89 in1012.2 mb 0.00 in0.0 mm 0.00 in0.0 mm 0.09 in2.3 mm
08:05 AM 69.8°F21.0°C 67.4°F19.7°C 92% 0.6 mph NE1.0 kmh NE 6.0 mph9.7 kmh 29.89 in1012.2 mb 0.00 in0.0 mm 0.00 in0.0 mm 0.09 in2.3 mm
08:00 AM 69.7°F20.9°C 67.0°F19.4°C 91% 0.3 mph NE0.5 kmh NE 4.0 mph6.4 kmh 29.89 in1012.2 mb 0.00 in0.0 mm 0.00 in0.0 mm 0.09 in2.3 mm
07:55 AM 69.5°F20.8°C 66.8°F19.3°C 91% 0.8 mph WSW1.3 kmh WSW 2.0 mph3.2 kmh 29.89 in1012.2 mb 0.00 in0.0 mm 0.00 in0.0 mm 0.09 in2.3 mm
07:50 AM 69.4°F20.8°C 66.7°F19.3°C 91% 1.3 mph WSW2.1 kmh WSW 5.0 mph8.0 kmh 29.90 in1012.5 mb 0.00 in0.0 mm 0.00 in0.0 mm 0.09 in2.3 mm
07:45 AM 69.2°F20.7°C 66.5°F19.2°C 91% 1.8 mph WSW2.9 kmh WSW 5.0 mph8.0 kmh 29.90 in1012.5 mb 0.01 in0.3 mm 0.00 in0.0 mm 0.09 in2.3 mm
07:40 AM 69.2°F20.7°C 66.8°F19.3°C 92% 2.1 mph WSW3.4 kmh WSW 4.0 mph6.4 kmh 29.90 in1012.5 mb 0.01 in0.3 mm 0.00 in0.0 mm 0.09 in2.3 mm
07:35 AM 69.1°F20.6°C 66.4°F19.1°C 91% 1.6 mph WSW2.6 kmh WSW 5.0 mph8.0 kmh 29.90 in1012.5 mb 0.02 in0.5 mm 0.00 in0.0 mm 0.09 in2.3 mm
07:30 AM 69.2°F20.7°C 66.5°F19.2°C 91% 1.1 mph WSW1.8 kmh WSW 5.0 mph8.0 kmh 29.89 in1012.2 mb 0.02 in0.5 mm 0.00 in0.0 mm 0.09 in2.3 mm
07:25 AM 69.2°F20.7°C 66.5°F19.2°C 91% 1.8 mph WSW2.9 kmh WSW 5.0 mph8.0 kmh 29.89 in1012.2 mb 0.03 in0.8 mm 0.00 in0.0 mm 0.09 in2.3 mm
07:20 AM 69.0°F20.6°C 66.3°F19.1°C 91% 3.2 mph WSW5.1 kmh WSW 5.0 mph8.0 kmh 29.88 in1011.9 mb 0.03 in0.8 mm 0.00 in0.0 mm 0.09 in2.3 mm
07:15 AM 69.0°F20.6°C 66.3°F19.1°C 91% 3.9 mph WSW6.3 kmh WSW 6.0 mph9.7 kmh 29.88 in1011.9 mb 0.03 in0.8 mm 0.00 in0.0 mm 0.09 in2.3 mm
07:10 AM 69.0°F20.6°C 66.3°F19.1°C 91% 2.9 mph WSW4.7 kmh WSW 8.0 mph12.9 kmh 29.88 in1011.9 mb 0.03 in0.8 mm 0.00 in0.0 mm 0.09 in2.3 mm
07:05 AM 69.0°F20.6°C 66.3°F19.1°C 91% 1.5 mph WSW2.4 kmh WSW 8.0 mph12.9 kmh 29.88 in1011.9 mb 0.03 in0.8 mm 0.00 in0.0 mm 0.09 in2.3 mm
07:00 AM 69.1°F20.6°C 66.7°F19.3°C 92% 1.0 mph WSW1.6 kmh WSW 5.0 mph8.0 kmh 29.89 in1012.2 mb 0.03 in0.8 mm 0.00 in0.0 mm 0.09 in2.3 mm
06:55 AM 69.0°F20.6°C 66.3°F19.1°C 91% 1.0 mph NNE1.6 kmh NNE 4.0 mph6.4 kmh 29.88 in1011.9 mb 0.04 in1.0 mm 0.00 in0.0 mm 0.09 in2.3 mm
06:50 AM 69.0°F20.6°C 66.6°F19.2°C 92% 1.2 mph NNE1.9 kmh NNE 4.0 mph6.4 kmh 29.87 in1011.5 mb 0.05 in1.3 mm 0.00 in0.0 mm 0.09 in2.3 mm
06:45 AM 68.9°F20.5°C 66.2°F19.0°C 91% 1.2 mph NNE1.9 kmh NNE 3.0 mph4.8 kmh 29.88 in1011.9 mb 0.05 in1.3 mm 0.00 in0.0 mm 0.09 in2.3 mm
06:40 AM 68.8°F20.4°C 66.1°F18.9°C 91% 0.7 mph NE1.1 kmh NE 3.0 mph4.8 kmh 29.89 in1012.2 mb 0.06 in1.5 mm 0.12 in3.0 mm 0.09 in2.3 mm
06:35 AM 68.8°F20.4°C 66.1°F18.9°C 91% 0.7 mph NE1.1 kmh NE 3.0 mph4.8 kmh 29.89 in1012.2 mb 0.05 in1.3 mm 0.12 in3.0 mm 0.08 in2.0 mm
06:30 AM 68.8°F20.4°C 66.1°F18.9°C 91% 1.0 mph WSW1.6 kmh WSW 3.0 mph4.8 kmh 29.89 in1012.2 mb 0.04 in1.0 mm 0.00 in0.0 mm 0.07 in1.8 mm
06:25 AM 69.0°F20.6°C 66.3°F19.1°C 91% 0.9 mph WSW1.4 kmh WSW 4.0 mph6.4 kmh 29.90 in1012.5 mb 0.04 in1.0 mm 0.00 in0.0 mm 0.06 in1.5 mm
06:20 AM 69.2°F20.7°C 66.1°F18.9°C 90% 0.4 mph WSW0.6 kmh WSW 4.0 mph6.4 kmh 29.90 in1012.5 mb 0.05 in1.3 mm 0.00 in0.0 mm 0.06 in1.5 mm
06:15 AM 69.3°F20.7°C 66.2°F19.0°C 90% Calm Calm 4.0 mph6.4 kmh 29.90 in1012.5 mb 0.05 in1.3 mm 0.00 in0.0 mm 0.06 in1.5 mm
06:10 AM 69.3°F20.7°C 66.2°F19.0°C 90% Calm Calm 1.0 mph1.6 kmh 29.90 in1012.5 mb 0.06 in1.5 mm 0.00 in0.0 mm 0.06 in1.5 mm
06:05 AM 69.3°F20.7°C 66.2°F19.0°C 90% 0.4 mph NW0.6 kmh NW 1.0 mph1.6 kmh 29.90 in1012.5 mb 0.06 in1.5 mm 0.00 in0.0 mm 0.06 in1.5 mm
06:00 AM 69.3°F20.7°C 66.2°F19.0°C 90% 0.9 mph WSW1.4 kmh WSW 3.0 mph4.8 kmh 29.90 in1012.5 mb 0.06 in1.5 mm 0.00 in0.0 mm 0.06 in1.5 mm
05:55 AM 69.4°F20.8°C 66.0°F18.9°C 89% 1.0 mph WSW1.6 kmh WSW 3.0 mph4.8 kmh 29.90 in1012.5 mb 0.06 in1.5 mm 0.12 in3.0 mm 0.06 in1.5 mm
05:50 AM 69.6°F20.9°C 66.2°F19.0°C 89% 0.5 mph N0.8 kmh N 3.0 mph4.8 kmh 29.90 in1012.5 mb 0.05 in1.3 mm 0.12 in3.0 mm 0.05 in1.3 mm
05:45 AM 69.6°F20.9°C 66.2°F19.0°C 89% Calm Calm 2.0 mph3.2 kmh 29.88 in1011.9 mb 0.04 in1.0 mm 0.12 in3.0 mm 0.04 in1.0 mm
05:40 AM 69.7°F20.9°C 66.3°F19.1°C 89% Calm Calm 1.0 mph1.6 kmh 29.88 in1011.9 mb 0.03 in0.8 mm 0.00 in0.0 mm 0.03 in0.8 mm
05:35 AM 69.6°F20.9°C 66.2°F19.0°C 89% 0.5 mph 0.8 kmh -- 29.88 in1011.9 mb 0.03 in0.8 mm 0.00 in0.0 mm 0.03 in0.8 mm
05:30 AM 69.4°F20.8°C 65.7°F18.7°C 88% 0.9 mph NE1.4 kmh NE 3.0 mph4.8 kmh 29.89 in1012.2 mb 0.03 in0.8 mm 0.12 in3.0 mm 0.03 in0.8 mm
05:25 AM 69.5°F20.8°C 65.8°F18.8°C 88% 0.5 mph NE0.8 kmh NE 3.0 mph4.8 kmh 29.88 in1011.9 mb 0.02 in0.5 mm 0.00 in0.0 mm 0.02 in0.5 mm
05:20 AM 69.7°F20.9°C 65.7°F18.7°C 87% Calm Calm 3.0 mph4.8 kmh 29.87 in1011.5 mb 0.02 in0.5 mm 0.12 in3.0 mm 0.02 in0.5 mm
05:15 AM 69.7°F20.9°C 65.3°F18.5°C 86% Calm Calm -- 29.87 in1011.5 mb 0.01 in0.3 mm 0.00 in0.0 mm 0.01 in0.3 mm
05:10 AM 69.8°F21.0°C 65.4°F18.6°C 86% Calm Calm -- 29.87 in1011.5 mb 0.01 in0.3 mm 0.12 in3.0 mm 0.01 in0.3 mm
05:05 AM 69.9°F21.1°C 65.5°F18.6°C 86% Calm Calm -- 29.87 in1011.5 mb 0.00 in0.0 mm 0.00 in0.0 mm 0.00 in0.0 mm
05:00 AM 69.9°F21.1°C 65.2°F18.4°C 85% Calm Calm -- 29.87 in1011.5 mb 0.00 in0.0 mm 0.00 in0.0 mm 0.00 in0.0 mm
04:55 AM 69.9°F21.1°C 65.2°F18.4°C 85% Calm Calm -- 29.87 in1011.5 mb 0.00 in0.0 mm 0.00 in0.0 mm 0.00 in0.0 mm
04:50 AM 69.8°F21.0°C 65.1°F18.4°C 85% Calm Calm 1.0 mph1.6 kmh 29.87 in1011.5 mb 0.00 in0.0 mm 0.00 in0.0 mm 0.00 in0.0 mm
04:45 AM 69.9°F21.1°C 64.8°F18.2°C 84% 0.4 mph N0.6 kmh N 1.0 mph1.6 kmh 29.87 in1011.5 mb 0.00 in0.0 mm 0.00 in0.0 mm 0.00 in0.0 mm
04:40 AM 69.9°F21.1°C 65.2°F18.4°C 85% 1.2 mph WSW1.9 kmh WSW 3.0 mph4.8 kmh 29.87 in1011.5 mb 0.00 in0.0 mm 0.00 in0.0 mm 0.00 in0.0 mm
04:35 AM 69.9°F21.1°C 65.2°F18.4°C 85% 1.2 mph WSW1.9 kmh WSW 3.0 mph4.8 kmh 29.88 in1011.9 mb 0.00 in0.0 mm 0.00 in0.0 mm 0.00 in0.0 mm
04:30 AM 69.9°F21.1°C 65.2°F18.4°C 85% 0.5 mph WSW0.8 kmh WSW 3.0 mph4.8 kmh 29.89 in1012.2 mb 0.00 in0.0 mm 0.00 in0.0 mm 0.00 in0.0 mm
04:25 AM 69.9°F21.1°C 65.2°F18.4°C 85% 0.6 mph WSW1.0 kmh WSW 3.0 mph4.8 kmh 29.88 in1011.9 mb 0.00 in0.0 mm 0.00 in0.0 mm 0.00 in0.0 mm
04:20 AM 70.0°F21.1°C 65.3°F18.5°C 85% 1.0 mph WSW1.6 kmh WSW 3.0 mph4.8 kmh 29.88 in1011.9 mb 0.00 in0.0 mm 0.00 in0.0 mm 0.00 in0.0 mm
04:15 AM 70.0°F21.1°C 65.3°F18.5°C 85% 1.0 mph WSW1.6 kmh WSW 5.0 mph8.0 kmh 29.88 in1011.9 mb 0.00 in0.0 mm 0.00 in0.0 mm 0.00 in0.0 mm
04:10 AM 70.1°F21.2°C 65.4°F18.6°C 85% 1.0 mph WSW1.6 kmh WSW 5.0 mph8.0 kmh 29.88 in1011.9 mb 0.00 in0.0 mm 0.00 in0.0 mm 0.00 in0.0 mm
04:05 AM 70.3°F21.3°C 65.6°F18.7°C 85% 0.9 mph WSW1.4 kmh WSW 3.0 mph4.8 kmh 29.88 in1011.9 mb 0.00 in0.0 mm 0.00 in0.0 mm 0.00 in0.0 mm
04:00 AM 70.3°F21.3°C 65.6°F18.7°C 85% 0.4 mph W0.6 kmh W 3.0 mph4.8 kmh 29.88 in1011.9 mb 0.00 in0.0 mm 0.00 in0.0 mm 0.00 in0.0 mm
03:55 AM 70.1°F21.2°C 65.7°F18.7°C 86% Calm Calm 2.0 mph3.2 kmh 29.88 in1011.9 mb 0.00 in0.0 mm 0.00 in0.0 mm 0.00 in0.0 mm
03:50 AM 70.1°F21.2°C 65.4°F18.6°C 85% Calm Calm 3.0 mph4.8 kmh 29.87 in1011.5 mb 0.00 in0.0 mm 0.00 in0.0 mm 0.00 in0.0 mm
03:45 AM 70.2°F21.2°C 65.5°F18.6°C 85% 0.5 mph NNE0.8 kmh NNE 3.0 mph4.8 kmh 29.87 in1011.5 mb 0.00 in0.0 mm 0.00 in0.0 mm 0.00 in0.0 mm
03:40 AM 70.3°F21.3°C 65.6°F18.7°C 85% 0.9 mph NNE1.4 kmh NNE 2.0 mph3.2 kmh 29.86 in1011.2 mb 0.00 in0.0 mm 0.00 in0.0 mm 0.00 in0.0 mm
03:35 AM 70.2°F21.2°C 65.5°F18.6°C 85% 0.6 mph NNE1.0 kmh NNE 3.0 mph4.8 kmh 29.86 in1011.2 mb 0.00 in0.0 mm 0.00 in0.0 mm 0.00 in0.0 mm
03:30 AM 70.3°F21.3°C 65.6°F18.7°C 85% 0.1 mph NE0.2 kmh NE 3.0 mph4.8 kmh 29.86 in1011.2 mb 0.00 in0.0 mm 0.00 in0.0 mm 0.00 in0.0 mm
03:25 AM 70.4°F21.3°C 65.7°F18.7°C 85% Calm Calm -- 29.87 in1011.5 mb 0.00 in0.0 mm 0.00 in0.0 mm 0.00 in0.0 mm
03:20 AM 70.4°F21.3°C 65.7°F18.7°C 85% Calm Calm -- 29.88 in1011.9 mb 0.00 in0.0 mm 0.00 in0.0 mm 0.00 in0.0 mm
03:15 AM 70.4°F21.3°C 65.7°F18.7°C 85% 0.3 mph 0.5 kmh -- 29.88 in1011.9 mb 0.00 in0.0 mm 0.00 in0.0 mm 0.00 in0.0 mm
03:10 AM 70.4°F21.3°C 65.7°F18.7°C 85% 0.8 mph NE1.3 kmh NE 1.0 mph1.6 kmh 29.89 in1012.2 mb 0.00 in0.0 mm 0.00 in0.0 mm 0.00 in0.0 mm
03:05 AM 70.5°F21.4°C 65.4°F18.6°C 84% 0.8 mph NE1.3 kmh NE 3.0 mph4.8 kmh 29.89 in1012.2 mb 0.00 in0.0 mm 0.00 in0.0 mm 0.00 in0.0 mm
03:00 AM 70.9°F21.6°C 65.5°F18.6°C 83% 0.4 mph NNE0.6 kmh NNE 3.0 mph4.8 kmh 29.89 in1012.2 mb 0.00 in0.0 mm 0.00 in0.0 mm 0.00 in0.0 mm
02:55 AM 71.5°F21.9°C 65.7°F18.7°C 82% 0.5 mph NNW0.8 kmh NNW 2.0 mph3.2 kmh 29.88 in1011.9 mb 0.00 in0.0 mm 0.00 in0.0 mm 0.00 in0.0 mm
02:50 AM 71.9°F22.2°C 65.8°F18.8°C 81% 1.0 mph SW1.6 kmh SW 3.0 mph4.8 kmh 29.88 in1011.9 mb 0.00 in0.0 mm 0.00 in0.0 mm 0.00 in0.0 mm
02:45 AM 71.9°F22.2°C 65.8°F18.8°C 81% 0.8 mph WSW1.3 kmh WSW 3.0 mph4.8 kmh 29.88 in1011.9 mb 0.00 in0.0 mm 0.00 in0.0 mm 0.00 in0.0 mm
02:40 AM 71.5°F21.9°C 65.7°F18.7°C 82% 1.1 mph W1.8 kmh W 2.0 mph3.2 kmh 29.88 in1011.9 mb 0.00 in0.0 mm 0.00 in0.0 mm 0.00 in0.0 mm
02:35 AM 71.3°F21.8°C 65.9°F18.8°C 83% 2.2 mph NNE3.5 kmh NNE 4.0 mph6.4 kmh 29.88 in1011.9 mb 0.00 in0.0 mm 0.00 in0.0 mm 0.00 in0.0 mm
02:30 AM 71.2°F21.8°C 65.8°F18.8°C 83% 2.2 mph NE3.5 kmh NE 6.0 mph9.7 kmh 29.87 in1011.5 mb 0.00 in0.0 mm 0.00 in0.0 mm 0.00 in0.0 mm
02:25 AM 71.4°F21.9°C 65.6°F18.7°C 82% 0.9 mph NE1.4 kmh NE 6.0 mph9.7 kmh 29.87 in1011.5 mb 0.00 in0.0 mm 0.00 in0.0 mm 0.00 in0.0 mm
02:20 AM 72.2°F22.3°C 65.7°F18.7°C 80% 0.2 mph NE0.3 kmh NE 4.0 mph6.4 kmh 29.87 in1011.5 mb 0.00 in0.0 mm 0.00 in0.0 mm 0.00 in0.0 mm
02:15 AM 72.2°F22.3°C 66.0°F18.9°C 81% 0.7 mph N1.1 kmh N 1.0 mph1.6 kmh 29.87 in1011.5 mb 0.00 in0.0 mm 0.00 in0.0 mm 0.00 in0.0 mm
02:10 AM 72.1°F22.3°C 65.9°F18.8°C 81% 1.0 mph N1.6 kmh N 2.0 mph3.2 kmh 29.88 in1011.9 mb 0.00 in0.0 mm 0.00 in0.0 mm 0.00 in0.0 mm
02:05 AM 72.4°F22.4°C 65.9°F18.8°C 80% 0.7 mph N1.1 kmh N 2.0 mph3.2 kmh 29.87 in1011.5 mb 0.00 in0.0 mm 0.00 in0.0 mm 0.00 in0.0 mm
02:00 AM 72.9°F22.7°C 66.0°F18.9°C 79% 0.8 mph NW1.3 kmh NW 3.0 mph4.8 kmh 29.87 in1011.5 mb 0.00 in0.0 mm 0.00 in0.0 mm 0.00 in0.0 mm
01:55 AM 72.9°F22.7°C 66.0°F18.9°C 79% 1.6 mph SW2.6 kmh SW 4.0 mph6.4 kmh 29.87 in1011.5 mb 0.00 in0.0 mm 0.00 in0.0 mm 0.00 in0.0 mm
01:50 AM 72.9°F22.7°C 66.0°F18.9°C 79% 2.0 mph SW3.2 kmh SW 5.0 mph8.0 kmh 29.87 in1011.5 mb 0.00 in0.0 mm 0.00 in0.0 mm 0.00 in0.0 mm
01:45 AM 72.9°F22.7°C 66.0°F18.9°C 79% 2.0 mph SW3.2 kmh SW 5.0 mph8.0 kmh 29.88 in1011.9 mb 0.00 in0.0 mm 0.00 in0.0 mm 0.00 in0.0 mm
01:40 AM 72.9°F22.7°C 66.4°F19.1°C 80% 2.0 mph SW3.2 kmh SW 5.0 mph8.0 kmh 29.88 in1011.9 mb 0.00 in0.0 mm 0.00 in0.0 mm 0.00 in0.0 mm
01:35 AM 73.0°F22.8°C 66.5°F19.2°C 80% 2.0 mph SSW3.2 kmh SSW 5.0 mph8.0 kmh 29.88 in1011.9 mb 0.00 in0.0 mm 0.00 in0.0 mm 0.00 in0.0 mm
01:30 AM 73.0°F22.8°C 66.5°F19.2°C 80% 1.6 mph SW2.6 kmh SW 4.0 mph6.4 kmh 29.88 in1011.9 mb 0.00 in0.0 mm 0.00 in0.0 mm 0.00 in0.0 mm
01:25 AM 73.1°F22.8°C 66.6°F19.2°C 80% 1.1 mph SW1.8 kmh SW 5.0 mph8.0 kmh 29.88 in1011.9 mb 0.00 in0.0 mm 0.00 in0.0 mm 0.00 in0.0 mm
01:20 AM 73.3°F22.9°C 66.8°F19.3°C 80% 1.0 mph SW1.6 kmh SW 5.0 mph8.0 kmh 29.88 in1011.9 mb 0.00 in0.0 mm 0.00 in0.0 mm 0.00 in0.0 mm
01:15 AM 73.3°F22.9°C 66.8°F19.3°C 80% 1.0 mph WSW1.6 kmh WSW 4.0 mph6.4 kmh 29.88 in1011.9 mb 0.00 in0.0 mm 0.00 in0.0 mm 0.00 in0.0 mm
01:10 AM 73.3°F22.9°C 66.8°F19.3°C 80% 1.0 mph WSW1.6 kmh WSW 4.0 mph6.4 kmh 29.88 in1011.9 mb 0.00 in0.0 mm 0.00 in0.0 mm 0.00 in0.0 mm
01:05 AM 73.4°F23.0°C 66.5°F19.2°C 79% 1.5 mph WSW2.4 kmh WSW 4.0 mph6.4 kmh 29.88 in1011.9 mb 0.00 in0.0 mm 0.00 in0.0 mm 0.00 in0.0 mm
01:00 AM 74.0°F23.3°C 66.7°F19.3°C 78% 1.5 mph WSW2.4 kmh WSW 4.0 mph6.4 kmh 29.88 in1011.9 mb 0.00 in0.0 mm 0.00 in0.0 mm 0.00 in0.0 mm
12:55 AM 74.1°F23.4°C 66.8°F19.3°C 78% 0.6 mph WSW1.0 kmh WSW 4.0 mph6.4 kmh 29.88 in1011.9 mb 0.00 in0.0 mm 0.00 in0.0 mm 0.00 in0.0 mm
12:50 AM 74.2°F23.4°C 67.3°F19.6°C 79% Calm Calm 4.0 mph6.4 kmh 29.88 in1011.9 mb 0.00 in0.0 mm 0.00 in0.0 mm 0.00 in0.0 mm
12:45 AM 74.3°F23.5°C 67.4°F19.7°C 79% Calm Calm -- 29.88 in1011.9 mb 0.00 in0.0 mm 0.00 in0.0 mm 0.00 in0.0 mm
12:40 AM 74.3°F23.5°C 67.4°F19.7°C 79% Calm Calm -- 29.88 in1011.9 mb 0.00 in0.0 mm 0.00 in0.0 mm 0.00 in0.0 mm
12:35 AM 74.4°F23.6°C 67.5°F19.7°C 79% Calm Calm -- 29.88 in1011.9 mb 0.00 in0.0 mm 0.00 in0.0 mm 0.00 in0.0 mm
12:30 AM 74.4°F23.6°C 67.1°F19.5°C 78% Calm Calm -- 29.88 in1011.9 mb 0.00 in0.0 mm 0.00 in0.0 mm 0.00 in0.0 mm
12:25 AM 74.5°F23.6°C 67.2°F19.6°C 78% Calm Calm -- 29.88 in1011.9 mb 0.00 in0.0 mm 0.00 in0.0 mm 0.00 in0.0 mm
12:20 AM 74.6°F23.7°C 67.3°F19.6°C 78% 0.2 mph 0.3 kmh -- 29.88 in1011.9 mb 0.00 in0.0 mm 0.00 in0.0 mm 0.00 in0.0 mm
12:15 AM 74.6°F23.7°C 67.3°F19.6°C 78% 0.7 mph W1.1 kmh W 1.0 mph1.6 kmh 29.88 in1011.9 mb 0.00 in0.0 mm 0.00 in0.0 mm 0.00 in0.0 mm
12:10 AM 74.7°F23.7°C 67.4°F19.7°C 78% 1.0 mph W1.6 kmh W 3.0 mph4.8 kmh 29.88 in1011.9 mb 0.00 in0.0 mm 0.00 in0.0 mm 0.00 in0.0 mm
12:05 AM 74.8°F23.8°C 67.5°F19.7°C 78% 1.1 mph W1.8 kmh W 3.0 mph4.8 kmh 29.88 in1011.9 mb 0.00 in0.0 mm 0.00 in0.0 mm 0.00 in0.0 mm
12:00 AM 74.8°F23.8°C 67.5°F19.7°C 78% 1.6 mph WSW2.6 kmh WSW 3.0 mph4.8 kmh 29.88 in1011.9 mb 0.00 in0.0 mm 0.00 in0.0 mm 0.00 in0.0 mm